Time;durP1;ratioP1;P1;durP2;ratioP2;P2;SDS_P1;SDS_P2;PMS_P1;PMS_P2;Temp;Humidity;BMP_temperature;BMP_pressure;BME280_temperature;BME280_humidity;BME280_pressure;Samples;Min_cycle;Max_cycle;Signal;HPM_P1;HPM_P2
2021/10/09 00:01:26;;;;;;;21.20;7.10;;;;;;;3.90;72.77;102007.30;113626;1197;23842;-55
2021/10/09 00:03:57;;;;;;;24.30;6.90;;;;;;;3.86;72.73;102007.05;113591;1197;25238;-57
2021/10/09 00:06:28;;;;;;;22.40;7.90;;;;;;;3.82;72.63;102010.11;113615;1197;22407;-57
2021/10/09 00:09:00;;;;;;;23.90;7.10;;;;;;;3.76;72.65;102005.35;113765;1197;22766;-56
2021/10/09 00:11:37;;;;;;;21.80;6.30;;;;;;;3.71;72.61;101998.48;113900;1197;22407;-55
2021/10/09 00:14:09;;;;;;;21.90;6.70;;;;;;;3.67;72.85;101997.13;113565;1197;22420;-56
2021/10/09 00:16:42;;;;;;;23.40;7.80;;;;;;;3.68;73.17;101997.98;113573;1197;23939;-58
2021/10/09 00:19:15;;;;;;;26.30;8.10;;;;;;;3.69;73.09;102000.83;113719;1189;24063;-57
2021/10/09 00:21:47;;;;;;;26.30;8.40;;;;;;;3.65;72.95;101998.85;113689;1174;22437;-53
2021/10/09 00:24:21;;;;;;;25.70;8.50;;;;;;;3.61;73.27;101996.08;113601;1197;22419;-57
2021/10/09 00:26:52;;;;;;;27.30;8.40;;;;;;;3.62;73.41;101994.98;113680;1189;22430;-58
2021/10/09 00:29:23;;;;;;;26.80;8.50;;;;;;;3.62;73.28;101993.79;113537;1197;25092;-56
2021/10/09 00:31:54;;;;;;;28.70;7.60;;;;;;;3.60;73.31;101993.08;113497;1197;24708;-55
2021/10/09 00:34:25;;;;;;;22.60;7.10;;;;;;;3.59;73.29;101993.08;113572;1197;25097;-58
2021/10/09 00:36:56;;;;;;;27.50;7.80;;;;;;;3.59;73.39;101993.08;113573;1197;25087;-56
2021/10/09 00:39:27;;;;;;;24.70;7.90;;;;;;;3.59;73.41;101993.78;113659;1197;22426;-57
2021/10/09 00:41:57;;;;;;;26.60;7.40;;;;;;;3.58;73.54;101991.17;113634;1191;22670;-55
2021/10/09 00:44:28;;;;;;;24.30;7.00;;;;;;;3.61;73.81;101992.76;113580;1189;24119;-58
2021/10/09 00:47:02;;;;;;;24.80;7.10;;;;;;;3.65;73.83;101991.52;113517;1189;24054;-56
2021/10/09 00:49:34;;;;;;;22.10;6.90;;;;;;;3.67;73.97;101992.87;113761;1190;24085;-56
2021/10/09 00:52:09;;;;;;;23.60;7.10;;;;;;;3.71;73.99;101994.38;113645;1197;23251;-55
2021/10/09 00:54:43;;;;;;;21.30;7.50;;;;;;;3.73;73.93;101989.10;113618;1197;23123;-57
2021/10/09 00:57:17;;;;;;;25.50;7.30;;;;;;;3.73;73.78;101989.56;113644;1191;24108;-55
2021/10/09 00:59:49;;;;;;;27.50;6.90;;;;;;;3.73;73.88;101987.59;113514;1197;22420;-53
2021/10/09 01:02:22;;;;;;;22.20;7.70;;;;;;;3.75;73.83;101985.86;113721;1197;22755;-56
2021/10/09 01:04:56;;;;;;;24.60;6.50;;;;;;;3.75;73.75;101986.96;113595;1197;24067;-54
2021/10/09 01:07:27;;;;;;;24.80;7.20;;;;;;;3.72;73.69;101982.63;113650;1197;25114;-55
2021/10/09 01:09:58;;;;;;;25.90;6.50;;;;;;;3.70;73.67;101982.70;113583;1189;26329;-56
2021/10/09 01:12:30;;;;;;;22.30;7.50;;;;;;;3.64;73.54;101981.96;113550;1197;24090;-56
2021/10/09 01:15:14;;;;;;;26.60;7.80;;;;;;;3.59;73.63;101984.86;113616;1197;22437;-57
2021/10/09 01:17:45;;;;;;;21.40;7.10;;;;;;;3.55;73.90;101980.59;113573;1197;25121;-56
2021/10/09 01:20:17;;;;;;;28.60;7.40;;;;;;;3.53;73.83;101982.95;113573;1197;22455;-57
2021/10/09 01:22:50;;;;;;;25.10;7.60;;;;;;;3.52;73.99;101984.36;113528;1197;22460;-56
2021/10/09 01:25:21;;;;;;;26.10;7.50;;;;;;;3.51;73.90;101982.08;113566;1197;22991;-58
2021/10/09 01:27:52;;;;;;;29.30;7.50;;;;;;;3.49;74.02;101980.64;113596;1197;22478;-53
2021/10/09 01:30:23;;;;;;;21.00;6.50;;;;;;;3.46;74.11;101985.36;113533;1197;25055;-55
2021/10/09 01:32:55;;;;;;;27.30;7.20;;;;;;;3.44;74.21;101984.24;113564;1197;22530;-56
2021/10/09 01:35:26;;;;;;;23.80;7.10;;;;;;;3.43;74.15;101983.79;113531;1197;25088;-54
2021/10/09 01:37:56;;;;;;;29.50;7.20;;;;;;;3.42;74.06;101981.16;113555;1195;24114;-54
2021/10/09 01:40:28;;;;;;;24.80;8.30;;;;;;;3.39;74.26;101980.05;113518;1197;22463;-57
2021/10/09 01:42:59;;;;;;;28.20;7.60;;;;;;;3.38;74.26;101977.84;113541;1197;22435;-55
2021/10/09 01:45:30;;;;;;;22.20;6.40;;;;;;;3.36;74.31;101977.05;113641;1190;23753;-56
2021/10/09 01:48:01;;;;;;;24.80;7.40;;;;;;;3.36;74.33;101973.41;113537;1196;24139;-58
2021/10/09 01:50:32;;;;;;;23.10;8.00;;;;;;;3.35;74.50;101975.63;113542;1197;22416;-56
2021/10/09 01:53:05;;;;;;;22.00;6.60;;;;;;;3.35;74.43;101971.52;113605;1190;22711;-58
2021/10/09 01:55:36;;;;;;;23.70;7.40;;;;;;;3.34;74.48;101971.75;113594;1197;22552;-56
2021/10/09 01:58:08;;;;;;;28.70;6.90;;;;;;;3.34;74.62;101970.73;113612;1197;22895;-57
2021/10/09 02:00:39;;;;;;;24.30;8.00;;;;;;;3.33;74.45;101967.89;113523;1197;23167;-56
2021/10/09 02:03:10;;;;;;;23.80;7.30;;;;;;;3.33;74.51;101968.99;113521;1197;25407;-57
2021/10/09 02:05:41;;;;;;;21.50;6.90;;;;;;;3.30;74.45;101971.89;113347;1197;22424;-55
2021/10/09 02:08:13;;;;;;;22.00;7.20;;;;;;;3.26;74.35;101975.58;114475;1197;22383;-60
2021/10/09 02:10:51;;;;;;;23.50;6.60;;;;;;;3.23;74.53;101974.84;114615;1197;22467;-57
2021/10/09 02:13:26;;;;;;;22.80;7.10;;;;;;;3.21;74.56;101973.51;113525;1197;22990;-61
2021/10/09 02:16:02;;;;;;;22.40;8.00;;;;;;;3.19;74.62;101977.13;113610;1197;22434;-55
2021/10/09 02:18:45;;;;;;;26.10;8.00;;;;;;;3.17;74.51;101976.02;113698;1197;25208;-55
2021/10/09 02:24:24;;;;;;;26.50;8.70;;;;;;;3.09;74.33;101977.23;113544;1197;22433;-59
2021/10/09 02:26:55;;;;;;;20.80;6.40;;;;;;;3.01;74.34;101982.70;113532;1197;22452;-58
2021/10/09 02:29:25;;;;;;;26.90;8.00;;;;;;;2.95;74.40;101981.09;113647;1190;22415;-57
2021/10/09 02:31:57;;;;;;;24.20;7.40;;;;;;;2.91;74.35;101983.98;113618;1197;23708;-57
2021/10/09 02:34:28;;;;;;;28.00;7.90;;;;;;;2.84;74.26;101986.54;113636;1190;25146;-55
2021/10/09 02:37:00;;;;;;;22.80;6.30;;;;;;;2.79;74.44;101986.50;113530;1197;22556;-57
2021/10/09 02:39:31;;;;;;;24.70;7.90;;;;;;;2.76;74.63;101984.59;113585;1197;23770;-58
2021/10/09 02:42:03;;;;;;;22.40;7.80;;;;;;;2.75;74.70;101978.75;113537;1197;23841;-57
2021/10/09 02:44:34;;;;;;;24.00;7.20;;;;;;;2.74;74.90;101976.70;113719;1197;25128;-56
2021/10/09 02:47:05;;;;;;;19.80;6.90;;;;;;;2.75;74.96;101975.91;113517;1197;22439;-57
2021/10/09 02:49:37;;;;;;;22.30;7.00;;;;;;;2.75;75.06;101975.91;113759;1197;25189;-54
2021/10/09 02:52:08;;;;;;;22.50;7.40;;;;;;;2.74;75.00;101973.46;113602;1197;22556;-57
2021/10/09 02:54:39;;;;;;;26.90;8.40;;;;;;;2.71;74.87;101969.27;113655;1197;23871;-57
2021/10/09 02:57:10;;;;;;;24.70;7.20;;;;;;;2.67;74.86;101972.73;113602;1197;22468;-59
2021/10/09 02:59:41;;;;;;;24.60;7.10;;;;;;;2.65;74.88;101968.52;113540;1197;22433;-56
2021/10/09 03:02:11;;;;;;;23.80;8.20;;;;;;;2.63;74.84;101970.16;113545;1190;22904;-57
2021/10/09 03:04:42;;;;;;;22.10;6.60;;;;;;;2.60;74.96;101974.64;113617;1197;22509;-59
2021/10/09 03:07:14;;;;;;;20.40;6.60;;;;;;;2.56;75.07;101975.86;113586;1197;25104;-55
2021/10/09 03:09:48;;;;;;;24.70;8.30;;;;;;;2.54;75.06;101973.95;113513;1190;25990;-56
2021/10/09 03:12:19;;;;;;;20.70;6.40;;;;;;;2.53;75.11;101974.02;113737;1197;24036;-57
2021/10/09 03:14:50;;;;;;;24.30;7.50;;;;;;;2.53;75.33;101976.61;113609;1197;25465;-55
2021/10/09 03:17:21;;;;;;;26.70;8.20;;;;;;;2.51;75.16;101973.63;113452;1190;22433;-61
2021/10/09 03:19:52;;;;;;;22.20;7.20;;;;;;;2.49;75.29;101975.41;113518;1197;22662;-55
2021/10/09 03:22:23;;;;;;;22.30;7.30;;;;;;;2.51;75.45;101977.16;113467;1190;22459;-56
2021/10/09 03:24:53;;;;;;;21.60;7.40;;;;;;;2.52;75.47;101975.73;113581;1190;22390;-56
2021/10/09 03:27:24;;;;;;;25.60;7.50;;;;;;;2.54;75.71;101977.81;113515;1197;22898;-57
2021/10/09 03:29:55;;;;;;;27.60;7.30;;;;;;;2.57;75.98;101973.89;113793;1197;24014;-57
2021/10/09 03:32:27;;;;;;;25.10;7.80;;;;;;;2.62;76.12;101975.44;113508;1197;22499;-55
2021/10/09 03:34:57;;;;;;;23.00;7.30;;;;;;;2.67;76.14;101975.00;113568;1197;22599;-57
2021/10/09 03:37:29;;;;;;;22.20;8.00;;;;;;;2.71;76.19;101974.39;113475;1190;25108;-57
2021/10/09 03:40:02;;;;;;;26.70;7.70;;;;;;;2.76;76.11;101978.30;113572;1197;22433;-56
2021/10/09 03:42:36;;;;;;;18.00;6.90;;;;;;;2.80;76.07;101982.48;113720;1197;22731;-56
2021/10/09 03:45:14;;;;;;;20.60;6.60;;;;;;;2.83;76.03;101984.16;113597;1190;22425;-57
2021/10/09 03:47:57;;;;;;;31.30;9.90;;;;;;;2.82;75.85;101986.60;113689;1197;23768;-59
2021/10/09 03:53:19;;;;;;;23.10;7.80;;;;;;;2.79;75.96;101989.66;113472;1190;22771;-55
2021/10/09 03:55:50;;;;;;;22.50;7.60;;;;;;;2.78;76.03;101989.96;113506;1197;25480;-58
2021/10/09 03:58:20;;;;;;;23.30;7.10;;;;;;;2.77;76.08;101990.83;113600;1197;25022;-58
2021/10/09 04:00:51;;;;;;;21.10;7.80;;;;;;;2.77;76.10;101995.16;113548;1197;22435;-57
2021/10/09 04:03:22;;;;;;;24.50;8.50;;;;;;;2.77;76.12;101993.11;113612;1190;22501;-57
2021/10/09 04:05:53;;;;;;;31.50;6.80;;;;;;;2.77;76.21;101992.73;113503;1183;22527;-55
2021/10/09 04:08:24;;;;;;;22.60;7.30;;;;;;;2.78;76.12;101991.55;113489;1197;22452;-57
2021/10/09 04:10:56;;;;;;;23.80;9.00;;;;;;;2.76;76.19;101994.04;113473;1190;22427;-56
2021/10/09 04:13:27;;;;;;;22.00;7.10;;;;;;;2.75;76.15;101997.11;113579;1197;23963;-55
2021/10/09 04:15:58;;;;;;;23.30;7.80;;;;;;;2.74;76.27;101996.41;113560;1197;22415;-58
2021/10/09 04:18:28;;;;;;;27.50;8.50;;;;;;;2.76;76.32;101997.21;113494;1197;24000;-54
2021/10/09 04:20:59;;;;;;;23.10;7.50;;;;;;;2.78;76.26;101993.73;113450;1197;24023;-53
2021/10/09 04:23:30;;;;;;;28.00;9.10;;;;;;;2.76;76.31;101993.50;113462;1197;25102;-58
2021/10/09 04:26:01;;;;;;;24.50;8.20;;;;;;;2.78;76.23;101992.02;113404;1197;25012;-56
2021/10/09 04:28:34;;;;;;;23.10;7.90;;;;;;;2.76;76.21;101989.88;113372;1197;24078;-58
2021/10/09 04:31:05;;;;;;;26.10;8.00;;;;;;;2.74;76.08;101989.46;113466;1190;22548;-56
2021/10/09 04:33:36;;;;;;;24.40;8.00;;;;;;;2.71;76.15;101993.38;113467;1190;24103;-54
2021/10/09 04:36:08;;;;;;;26.90;9.00;;;;;;;2.70;76.33;101995.18;113598;1197;24109;-57
2021/10/09 04:38:39;;;;;;;23.90;8.40;;;;;;;2.72;76.40;101998.03;113588;1197;22422;-56
2021/10/09 04:41:09;;;;;;;21.30;8.00;;;;;;;2.72;76.57;101996.15;113538;1197;25065;-55
2021/10/09 04:43:40;;;;;;;22.60;6.80;;;;;;;2.75;76.60;101996.16;113505;1198;22452;-58
2021/10/09 04:46:11;;;;;;;24.40;7.80;;;;;;;2.74;76.51;102000.50;113366;1193;25048;-56
2021/10/09 04:48:42;;;;;;;24.50;7.60;;;;;;;2.75;76.49;102003.02;113538;1198;24046;-56
2021/10/09 04:51:13;;;;;;;23.50;7.80;;;;;;;2.76;76.45;102001.84;113468;1198;24270;-54
2021/10/09 04:53:46;;;;;;;21.80;8.40;;;;;;;2.75;76.37;102004.27;113428;1198;22440;-56
2021/10/09 04:56:17;;;;;;;23.50;8.60;;;;;;;2.72;76.42;102005.52;113380;1197;25122;-56
2021/10/09 04:58:47;;;;;;;26.00;8.20;;;;;;;2.72;76.31;102008.52;113504;1190;24088;-53
2021/10/09 05:01:19;;;;;;;24.70;8.60;;;;;;;2.70;76.35;102008.19;113488;1194;25118;-57
2021/10/09 05:03:49;;;;;;;27.70;8.50;;;;;;;2.68;76.30;102011.87;113469;1198;23254;-56
2021/10/09 05:06:20;;;;;;;24.60;9.60;;;;;;;2.68;76.34;102015.89;113502;1198;25020;-58
2021/10/09 05:08:51;;;;;;;26.20;9.10;;;;;;;2.65;76.22;102017.54;113703;1198;23106;-57
2021/10/09 05:11:22;;;;;;;22.20;8.10;;;;;;;2.63;76.21;102023.74;114266;1198;24101;-59
2021/10/09 05:13:53;;;;;;;26.40;9.30;;;;;;;2.59;76.19;102023.08;113793;1198;24113;-56
2021/10/09 05:16:24;;;;;;;23.30;7.40;;;;;;;2.56;76.24;102021.23;113520;1198;22426;-54
2021/10/09 05:18:55;;;;;;;25.50;9.90;;;;;;;2.52;76.38;102020.24;113596;1198;22541;-56
2021/10/09 05:21:26;;;;;;;25.50;8.50;;;;;;;2.51;76.67;102028.60;113464;1198;25321;-56
2021/10/09 05:23:58;;;;;;;25.40;9.10;;;;;;;2.52;76.67;102034.27;113433;1198;24609;-56
2021/10/09 05:26:29;;;;;;;25.20;9.20;;;;;;;2.54;76.64;102038.23;113792;1198;22594;-56
2021/10/09 05:28:59;;;;;;;24.80;9.50;;;;;;;2.53;76.69;102042.55;113399;1198;22451;-57
2021/10/09 05:31:31;;;;;;;27.60;8.90;;;;;;;2.52;76.84;102049.63;113328;1190;22436;-54
2021/10/09 05:34:02;;;;;;;25.90;8.70;;;;;;;2.53;76.92;102046.17;113595;1190;24083;-54
2021/10/09 05:36:34;;;;;;;29.90;9.20;;;;;;;2.53;76.91;102045.08;113583;1193;23820;-57
2021/10/09 05:39:07;;;;;;;28.90;9.50;;;;;;;2.55;76.90;102041.77;113454;1198;24102;-59
2021/10/09 05:41:38;;;;;;;24.90;9.90;;;;;;;2.55;76.97;102039.04;116015;1198;22456;-55
2021/10/09 05:44:10;;;;;;;29.00;9.10;;;;;;;2.59;77.09;102044.73;113448;1198;22503;-57
2021/10/09 05:46:41;;;;;;;22.00;7.70;;;;;;;2.63;77.27;102042.80;114103;1193;22435;-56
2021/10/09 05:49:13;;;;;;;25.30;9.90;;;;;;;2.65;77.18;102043.36;113433;1198;22580;-58
2021/10/09 05:51:53;;;;;;;24.20;9.10;;;;;;;2.68;77.11;102045.84;113322;1198;22560;-59
2021/10/09 05:54:28;;;;;;;30.50;10.10;;;;;;;2.70;77.14;102043.33;113504;1198;22446;-56
2021/10/09 05:57:04;;;;;;;27.40;9.90;;;;;;;2.71;77.18;102043.80;113267;1198;22420;-57
2021/10/09 06:25:36;;;;;;;27.70;11.20;;;;;;;3.08;77.76;102066.63;112647;1204;25073;-59
2021/10/09 06:42:50;;;;;;;27.00;10.30;;;;;;;3.48;77.98;102082.96;112836;1202;22831;-60
2021/10/09 06:48:41;;;;;;;26.20;10.10;;;;;;;3.62;78.04;102079.01;112593;1193;22616;-59
2021/10/09 06:59:39;;;;;;;;;;;;;;;4.00;77.71;102091.80;112700;1205;25340;-60
2021/10/09 07:02:11;;;;;;;26.90;9.20;;;;;;;4.06;77.63;102098.53;112700;1200;22444;-56
2021/10/09 07:04:42;;;;;;;27.90;9.20;;;;;;;4.14;77.56;102101.55;113099;1205;22758;-57
2021/10/09 07:07:17;;;;;;;25.60;9.00;;;;;;;4.22;77.81;102100.31;112789;1205;22443;-60
2021/10/09 07:09:48;;;;;;;26.40;8.40;;;;;;;4.32;77.69;102102.31;112980;1198;25074;-57
2021/10/09 07:12:20;;;;;;;27.80;8.80;;;;;;;4.40;77.65;102101.62;112885;1205;22429;-57
2021/10/09 07:14:50;;;;;;;23.50;8.90;;;;;;;4.47;77.33;102104.72;112880;1205;22429;-60
2021/10/09 07:17:21;;;;;;;25.00;8.40;;;;;;;4.53;77.23;102105.36;112848;1205;22437;-61
2021/10/09 07:19:52;;;;;;;23.40;8.30;;;;;;;4.60;77.22;102107.81;112874;1200;22449;-56
2021/10/09 07:22:23;;;;;;;29.70;10.40;;;;;;;4.67;77.11;102110.36;113009;1200;23770;-58
2021/10/09 07:24:54;;;;;;;23.20;8.60;;;;;;;4.73;77.11;102109.96;112866;1199;24100;-60
2021/10/09 07:27:25;;;;;;;27.30;10.30;;;;;;;4.77;76.98;102107.04;112840;1203;22660;-57
2021/10/09 07:29:56;;;;;;;69.00;27.10;;;;;;;4.83;77.00;102110.92;112920;1203;22645;-59
2021/10/09 07:32:28;;;;;;;34.60;13.40;;;;;;;4.89;76.93;102107.29;112796;1203;22693;-56
2021/10/09 07:34:59;;;;;;;107.60;47.90;;;;;;;4.96;76.93;102109.19;113019;1203;22428;-59
2021/10/09 07:37:30;;;;;;;40.70;15.10;;;;;;;5.03;76.82;102108.23;113115;1201;22404;-58
2021/10/09 07:40:02;;;;;;;33.20;12.60;;;;;;;5.11;76.69;102111.70;113232;1200;37835;-68
2021/10/09 07:42:33;;;;;;;32.40;12.30;;;;;;;5.17;76.59;102109.48;113089;1199;22545;-65
2021/10/09 07:45:05;;;;;;;29.60;12.90;;;;;;;5.24;76.53;102113.45;113514;1199;22436;-65
2021/10/09 07:47:37;;;;;;;36.50;17.10;;;;;;;5.31;76.62;102116.36;113536;1199;25058;-65
2021/10/09 07:50:08;;;;;;;30.70;12.60;;;;;;;5.38;76.31;102119.29;113455;1199;25111;-66
2021/10/09 07:52:41;;;;;;;26.20;9.80;;;;;;;5.44;76.06;102120.05;113617;1193;22420;-66
2021/10/09 07:55:13;;;;;;;25.60;9.90;;;;;;;5.53;76.07;102120.84;113407;1199;22437;-66
2021/10/09 07:57:45;;;;;;;30.30;11.70;;;;;;;5.59;75.98;102120.98;113448;1193;25067;-66
2021/10/09 08:00:16;;;;;;;32.20;11.60;;;;;;;5.68;75.86;102119.44;113556;1199;22423;-66
2021/10/09 08:02:52;;;;;;;23.10;7.60;;;;;;;5.77;75.70;102118.38;113587;1199;25124;-67
2021/10/09 08:05:24;;;;;;;24.60;8.00;;;;;;;5.85;75.13;102124.32;114038;1199;22430;-66
2021/10/09 08:07:55;;;;;;;25.20;8.50;;;;;;;5.90;74.89;102127.64;113475;1199;25842;-66
2021/10/09 08:10:27;;;;;;;20.70;7.30;;;;;;;5.97;74.77;102129.43;113999;1192;24078;-67
2021/10/09 08:12:58;;;;;;;25.80;8.70;;;;;;;6.04;74.80;102127.42;116886;1193;25055;-67
2021/10/09 08:15:30;;;;;;;20.90;6.80;;;;;;;6.10;74.68;102127.48;114781;1199;23758;-67
2021/10/09 08:18:01;;;;;;;20.30;6.60;;;;;;;6.19;74.68;102127.66;114118;1199;24765;-66
2021/10/09 08:20:33;;;;;;;22.50;7.40;;;;;;;6.27;74.67;102129.84;113472;1199;22445;-67
2021/10/09 08:23:08;;;;;;;23.10;7.30;;;;;;;6.36;74.35;102129.41;113904;1199;23680;-67
2021/10/09 08:37:20;;;;;;;23.90;6.70;;;;;;;6.75;73.58;102126.23;113236;1198;22436;-67
2021/10/09 08:39:51;;;;;;;24.30;7.50;;;;;;;6.88;73.32;102130.50;114804;1184;22552;-67
2021/10/09 08:42:23;;;;;;;20.40;6.70;;;;;;;6.97;73.01;102131.92;113314;1193;22488;-67
2021/10/09 08:44:55;;;;;;;24.90;8.50;;;;;;;7.04;72.95;102130.29;113362;1197;22455;-67
2021/10/09 08:47:27;;;;;;;40.20;18.70;;;;;;;7.11;72.88;102128.40;117067;1192;22897;-67
2021/10/09 08:49:58;;;;;;;24.90;11.20;;;;;;;7.18;72.72;102127.55;113419;1199;24103;-66
2021/10/09 08:52:31;;;;;;;20.70;8.70;;;;;;;7.28;72.60;102128.80;113470;1199;25153;-66
2021/10/09 08:55:22;;;;;;;26.30;8.00;;;;;;;7.36;72.33;102123.17;113531;1198;22415;-67
2021/10/09 08:57:55;;;;;;;17.70;6.30;;;;;;;7.45;71.92;102121.82;113551;1199;22544;-66
2021/10/09 09:01:00;;;;;;;18.20;6.50;;;;;;;7.54;71.28;102122.20;113437;1193;25111;-67
2021/10/09 09:04:13;;;;;;;18.90;6.10;;;;;;;7.67;71.53;102118.41;113431;1187;25074;-67
2021/10/09 09:27:36;;;;;;;15.80;3.70;;;;;;;8.48;68.69;102114.45;113438;1199;25226;-67
2021/10/09 09:33:34;;;;;;;16.10;4.10;;;;;;;8.69;67.89;102111.44;112884;1203;22547;-67
2021/10/09 09:36:11;;;;;;;13.90;3.70;;;;;;;8.74;67.54;102109.05;112816;1202;24007;-67
2021/10/09 09:39:07;;;;;;;12.70;3.10;;;;;;;8.83;67.57;102110.35;112818;1202;22438;-67
2021/10/09 09:41:49;;;;;;;18.20;5.00;;;;;;;8.91;67.24;102110.52;113003;1202;24098;-66
2021/10/09 09:44:26;;;;;;;18.40;6.10;;;;;;;8.97;66.81;102106.54;112868;1203;25127;-67
2021/10/09 09:47:36;;;;;;;20.50;6.20;;;;;;;9.07;66.61;102108.77;112840;1201;25151;-67
2021/10/09 09:50:10;;;;;;;20.00;6.60;;;;;;;9.20;66.16;102108.21;112809;1203;22447;-67
2021/10/09 09:52:43;;;;;;;20.00;5.60;;;;;;;9.25;65.81;102107.40;112793;1196;24540;-68
2021/10/09 09:55:16;;;;;;;27.70;6.80;;;;;;;9.32;65.45;102102.51;112966;1197;22439;-67
2021/10/09 09:57:49;;;;;;;15.90;4.30;;;;;;;9.38;65.30;102103.83;112849;1203;22562;-69
2021/10/09 10:00:20;;;;;;;12.40;3.00;;;;;;;9.41;65.35;102104.40;113302;1203;22439;-65
2021/10/09 10:02:54;;;;;;;10.30;2.60;;;;;;;9.48;64.38;102096.48;112303;1203;22570;-66
2021/10/09 10:05:28;;;;;;;11.30;2.30;;;;;;;9.51;63.55;102098.23;113077;1195;25080;-68
2021/10/09 10:08:00;;;;;;;10.80;2.70;;;;;;;9.57;63.46;102096.23;113460;1203;22507;-68
2021/10/09 10:10:31;;;;;;;11.40;2.50;;;;;;;9.61;62.81;102098.46;112602;1200;22486;-67
2021/10/09 10:13:03;;;;;;;10.40;3.20;;;;;;;9.68;62.86;102096.23;113060;1200;23870;-67
2021/10/09 10:15:35;;;;;;;11.70;3.70;;;;;;;9.73;62.49;102097.02;112891;1200;22452;-68
2021/10/09 10:18:06;;;;;;;13.00;3.00;;;;;;;9.75;62.04;102098.02;113238;1193;25212;-67
2021/10/09 10:20:51;;;;;;;10.20;2.70;;;;;;;9.76;61.96;102094.96;113060;1200;22484;-68
2021/10/09 10:23:40;;;;;;;16.60;3.50;;;;;;;9.77;61.45;102094.55;113067;1200;22734;-68
2021/10/09 10:26:31;;;;;;;15.50;3.30;;;;;;;9.83;61.55;102095.33;113014;1200;22419;-68
2021/10/09 10:29:24;;;;;;;9.10;2.30;;;;;;;9.87;61.08;102093.79;113879;1200;22434;-68
2021/10/09 10:32:17;;;;;;;11.20;3.30;;;;;;;9.90;60.88;102088.47;113716;1193;22590;-68
2021/10/09 10:34:50;;;;;;;9.60;2.40;;;;;;;9.94;60.72;102088.72;113157;1200;22435;-68
2021/10/09 10:37:38;;;;;;;12.00;2.70;;;;;;;9.96;60.35;102086.75;113105;1200;22552;-68
2021/10/09 10:40:11;;;;;;;11.00;2.60;;;;;;;10.02;60.47;102082.55;113084;1200;22486;-68
2021/10/09 10:42:43;;;;;;;11.50;3.30;;;;;;;10.11;59.98;102078.08;113194;1192;22446;-68
2021/10/09 10:45:37;;;;;;;14.20;3.30;;;;;;;10.18;59.26;102078.00;113325;1199;22475;-68
2021/10/09 10:48:15;;;;;;;12.60;2.80;;;;;;;10.25;59.04;102075.16;113499;1199;22538;-67
2021/10/09 10:54:33;;;;;;;13.40;3.20;;;;;;;10.28;58.42;102068.61;113284;1193;22467;-68
2021/10/09 10:57:24;;;;;;;12.50;3.10;;;;;;;10.26;58.14;102069.70;113405;1199;22593;-68
2021/10/09 11:00:16;;;;;;;10.90;2.80;;;;;;;10.28;58.07;102062.08;113409;1199;23718;-67
2021/10/09 11:02:49;;;;;;;18.80;3.40;;;;;;;10.32;58.19;102060.23;114151;1199;25039;-68
2021/10/09 11:05:20;;;;;;;14.90;4.10;;;;;;;10.36;58.45;102060.67;115392;1192;22430;-67
2021/10/09 11:07:52;;;;;;;11.10;3.00;;;;;;;10.39;58.31;102057.27;113358;1184;24115;-67
2021/10/09 11:10:23;;;;;;;12.20;3.40;;;;;;;10.42;58.14;102051.92;113622;1199;23219;-67
2021/10/09 11:12:55;;;;;;;10.20;3.50;;;;;;;10.45;58.02;102045.80;115046;1199;22450;-68
2021/10/09 11:15:28;;;;;;;11.30;2.90;;;;;;;10.50;57.33;102042.18;114578;1198;24670;-67
2021/10/09 11:18:01;;;;;;;15.10;3.80;;;;;;;10.53;57.10;102044.25;113441;1199;25071;-67
2021/10/09 11:20:36;;;;;;;13.80;3.50;;;;;;;10.53;57.03;102037.79;113674;1199;22461;-67
2021/10/09 11:23:09;;;;;;;14.50;3.40;;;;;;;10.54;56.60;102037.84;113495;1192;22724;-69
2021/10/09 11:26:06;;;;;;;14.40;4.10;;;;;;;10.57;56.69;102041.59;113543;1199;22775;-68
2021/10/09 11:28:40;;;;;;;16.60;5.90;;;;;;;10.62;56.59;102036.06;113494;1199;22468;-68
2021/10/09 11:31:20;;;;;;;23.90;8.70;;;;;;;10.63;56.48;102034.29;113495;1199;25390;-68
2021/10/09 11:33:57;;;;;;;19.10;6.90;;;;;;;10.64;55.92;102034.25;113437;1199;23190;-68
2021/10/09 11:36:28;;;;;;;18.10;6.20;;;;;;;10.66;55.77;102030.13;113362;1192;22414;-68
2021/10/09 11:39:07;;;;;;;13.20;3.90;;;;;;;10.67;55.39;102027.58;113406;1199;24042;-68
2021/10/09 11:41:40;;;;;;;18.40;4.50;;;;;;;10.70;55.54;102018.23;113875;1199;24123;-69
2021/10/09 11:44:22;;;;;;;16.20;3.90;;;;;;;10.72;55.48;102021.38;114084;1198;25330;-68
2021/10/09 11:56:03;;;;;;;15.70;3.70;;;;;;;10.81;54.59;102022.27;113591;1200;25116;-69
2021/10/09 11:58:44;;;;;;;11.30;2.90;;;;;;;10.85;54.59;102018.15;113555;1196;25114;-69
2021/10/09 12:01:37;;;;;;;13.30;3.30;;;;;;;10.88;53.92;102021.91;113890;1199;22467;-68
2021/10/09 12:04:19;;;;;;;14.90;3.40;;;;;;;10.91;53.92;102017.29;113952;1199;22491;-69
2021/10/09 12:06:55;;;;;;;12.60;3.20;;;;;;;10.95;53.64;102015.27;113997;1199;25086;-69
2021/10/09 12:09:38;;;;;;;12.20;2.60;;;;;;;10.97;53.31;102014.27;113259;1199;22448;-75
2021/10/09 12:12:18;;;;;;;10.90;2.10;;;;;;;11.01;53.02;102013.44;113898;1193;23180;-72
2021/10/09 12:14:51;;;;;;;12.30;2.90;;;;;;;11.07;52.72;102010.15;113637;1200;22459;-67
2021/10/09 12:17:33;;;;;;;13.10;3.50;;;;;;;11.12;52.35;102007.48;113004;1200;25218;-68
2021/10/09 12:20:07;;;;;;;10.90;2.70;;;;;;;11.15;52.41;102007.06;113069;1199;22456;-67
2021/10/09 12:22:49;;;;;;;16.80;3.70;;;;;;;11.18;52.18;102001.64;113281;1199;22443;-67
2021/10/09 12:25:26;;;;;;;12.10;2.80;;;;;;;11.22;52.18;102003.11;113082;1200;22467;-67
2021/10/09 12:28:00;;;;;;;11.70;3.10;;;;;;;11.25;51.84;102004.21;114506;1199;22468;-67
2021/10/09 12:30:43;;;;;;;15.50;3.60;;;;;;;11.28;51.71;102004.47;113076;1192;22505;-66
2021/10/09 12:33:35;;;;;;;12.80;2.90;;;;;;;11.33;51.40;102003.38;113221;1193;22443;-67
2021/10/09 12:36:31;;;;;;;14.90;2.90;;;;;;;11.36;51.12;102000.41;113278;1193;25436;-68
2021/10/09 12:39:22;;;;;;;9.70;2.50;;;;;;;11.39;51.06;102002.09;114000;1199;22421;-67
2021/10/09 12:41:56;;;;;;;13.10;3.00;;;;;;;11.41;50.61;102000.98;113459;1198;24072;-68
2021/10/09 12:44:27;;;;;;;9.20;2.70;;;;;;;11.42;50.75;101999.23;113392;1198;22440;-60
2021/10/09 12:46:58;;;;;;;12.40;2.90;;;;;;;11.43;50.86;101992.16;113589;1192;24075;-61
2021/10/09 12:49:29;;;;;;;14.70;3.50;;;;;;;11.44;50.98;101986.52;113824;1200;22452;-58
2021/10/09 12:52:00;;;;;;;13.10;3.10;;;;;;;11.45;50.80;101992.10;113826;1199;22659;-58
2021/10/09 12:54:32;;;;;;;11.50;2.60;;;;;;;11.46;50.35;101992.52;114104;1189;22455;-61
2021/10/09 12:57:06;;;;;;;10.80;2.50;;;;;;;11.47;50.25;101991.79;113636;1190;23794;-60
2021/10/09 12:59:38;;;;;;;11.40;2.50;;;;;;;11.47;50.38;101989.62;113932;1182;24096;-58
2021/10/09 13:02:09;;;;;;;11.10;2.90;;;;;;;11.50;50.34;101990.77;113899;1197;22417;-58
2021/10/09 13:04:40;;;;;;;12.50;3.50;;;;;;;11.49;50.17;101986.45;113617;1196;22870;-57
2021/10/09 13:07:11;;;;;;;15.70;4.40;;;;;;;11.48;49.83;101981.52;113765;1196;24079;-59
2021/10/09 13:09:42;;;;;;;18.20;5.30;;;;;;;11.48;49.73;101982.80;113751;1190;23520;-58
2021/10/09 13:12:15;;;;;;;25.00;10.00;;;;;;;11.47;48.84;101972.05;113877;1191;24170;-61
2021/10/09 13:14:47;;;;;;;25.10;10.00;;;;;;;11.48;49.31;101978.51;113959;1198;26422;-58
2021/10/09 13:17:18;;;;;;;15.70;5.90;;;;;;;11.48;49.39;101976.81;114063;1196;24116;-57
2021/10/09 13:19:49;;;;;;;11.80;3.50;;;;;;;11.48;49.00;101971.39;114016;1197;22445;-58
2021/10/09 13:22:21;;;;;;;9.90;2.30;;;;;;;11.48;48.82;101965.33;114013;1196;22484;-61
2021/10/09 13:24:52;;;;;;;11.00;2.80;;;;;;;11.50;48.78;101968.28;113890;1190;22415;-58
2021/10/09 13:27:24;;;;;;;11.00;2.80;;;;;;;11.51;48.71;101968.41;113831;1197;22457;-60
2021/10/09 13:29:56;;;;;;;11.40;2.20;;;;;;;11.50;48.81;101961.03;114461;1196;24886;-61
2021/10/09 13:32:27;;;;;;;14.60;2.80;;;;;;;11.49;48.87;101962.23;114129;1190;22730;-59